Weather reports worldwide

Advertisment
Inverness/Dalcross, United Kingdom (3059): temperature & dewpoint: 13.02.2019 13:00:00 - 19.02.2019 13:00:00 (GMT)Inverness/Dalcross, United Kingdom (3059): wind speed: 13.02.2019 13:00:00 - 19.02.2019 13:00:00 (GMT)Inverness/Dalcross, United Kingdom (3059): wind direction: 13.02.2019 13:00:00 - 19.02.2019 13:00:00 (GMT)Inverness/Dalcross, United Kingdom (3059): visibility: 13.02.2019 13:00:00 - 19.02.2019 13:00:00 (GMT)
Date & Time tt [°C] td [°C] ff [km/h] ff [kn] dd vv [km]
19.02.2019 13:00:00 9,0 5,0 15 8 SW 10
19.02.2019 12:00:00 9,0 5,0 11 6 SW 10
19.02.2019 11:00:00 7,0 5,0 8 4 SW 10
19.02.2019 10:00:00 6,0 4,0 5 3 NW 10
19.02.2019 09:00:00 4,0 3,0 9 5 SSW 10
19.02.2019 08:00:00 4,0 2,0 16 9 SW 10
19.02.2019 07:00:00 4,0 3,0 15 8 SW 10
19.02.2019 06:00:00 4,0 2,0 22 12 SW 10
19.02.2019 05:00:00 3,0 2,0 18 10 SW 10
19.02.2019 04:00:00 4,0 2,0 4 2 - 10
19.02.2019 03:00:00 6,0 3,0 11 6 SW 10
19.02.2019 02:00:00 3,0 2,0 16 9 SW 10
19.02.2019 01:00:00 6,0 4,0 18 10 SW 10
19.02.2019 00:00:00 7,0 4,0 22 12 W 10
18.02.2019 23:00:00 6,0 4,0 16 9 SW 10
18.02.2019 22:00:00 6,0 4,0 22 12 SW 10
18.02.2019 21:00:00 6,0 4,0 24 13 SW 10
18.02.2019 20:00:00 5,0 4,0 22 12 SW 10
18.02.2019 19:00:00 6,0 4,0 16 9 SW 10
18.02.2019 18:00:00 7,0 5,0 24 13 SW 10
18.02.2019 17:00:00 7,0 4,0 28 15 SW 10
18.02.2019 16:00:00 7,0 4,0 31 17 SW 10
18.02.2019 15:00:00 7,0 4,0 34 18 SW 10
18.02.2019 14:00:00 7,0 5,0 44 24 SW 10
18.02.2019 13:00:00 9,0 4,0 59 32 SW 10
18.02.2019 12:00:00 9,0 3,0 50 27 SW 10
18.02.2019 11:00:00 - - - - - -
18.02.2019 10:00:00 9,0 3,0 31 17 SW 10
18.02.2019 09:00:00 8,0 2,0 22 12 SSW 10
18.02.2019 08:00:00 7,0 1,0 22 12 SSW 10
18.02.2019 07:00:00 7,0 1,0 29 16 SSW 10
18.02.2019 06:00:00 6,0 1,0 13 7 SSW 10
18.02.2019 05:00:00 7,0 2,0 39 21 SSW 10
18.02.2019 04:00:00 6,0 3,0 22 12 SW 10
18.02.2019 03:00:00 7,0 3,0 21 11 SSW 10
18.02.2019 02:00:00 8,0 3,0 18 10 SSW 10
18.02.2019 01:00:00 8,0 2,0 29 16 SSW 10
18.02.2019 00:00:00 8,0 3,0 24 13 S 10
17.02.2019 23:00:00 8,0 4,0 28 15 S 10
17.02.2019 22:00:00 8,0 4,0 22 12 S 10
17.02.2019 21:00:00 6,0 2,0 8 4 SSW 10
17.02.2019 20:00:00 4,0 1,0 0 0 N 10
17.02.2019 19:00:00 7,0 3,0 9 5 S 10
17.02.2019 18:00:00 5,0 3,0 2 1 - 10
17.02.2019 17:00:00 7,0 4,0 16 9 WSW 10
17.02.2019 16:00:00 7,0 4,0 22 12 SSW 10
17.02.2019 15:00:00 12,0 4,0 34 18 SSW 10
17.02.2019 14:00:00 13,0 6,0 34 18 S 10
17.02.2019 13:00:00 12,0 6,0 42 23 S 10
17.02.2019 12:00:00 13,0 6,0 44 24 S 10
17.02.2019 11:00:00 - - - - - -
17.02.2019 10:00:00 13,0 6,0 16 9 SW 10
17.02.2019 09:00:00 - - - - - -
17.02.2019 08:00:00 11,0 6,0 21 11 S 10
17.02.2019 07:00:00 11,0 6,0 16 9 S 10
17.02.2019 06:00:00 - - - - - -
17.02.2019 05:00:00 - - - - - -
17.02.2019 04:00:00 - - - - - -
17.02.2019 03:00:00 - - - - - -
17.02.2019 02:00:00 - - - - - -
17.02.2019 01:00:00 - - - - - -
17.02.2019 00:00:00 - - - - - -
16.02.2019 23:00:00 - - - - - -
16.02.2019 22:00:00 - - - - - -
16.02.2019 21:00:00 - - - - - -
16.02.2019 20:00:00 8,0 4,0 8 4 SE 10
16.02.2019 19:00:00 9,0 4,0 11 6 S 10
16.02.2019 18:00:00 9,0 4,0 13 7 SSW 10
16.02.2019 17:00:00 9,0 5,0 4 2 - 10
16.02.2019 16:00:00 9,0 6,0 11 6 SSW 10
16.02.2019 15:00:00 9,0 6,0 16 9 SW 10
16.02.2019 14:00:00 10,0 5,0 24 13 SSW 10
16.02.2019 13:00:00 10,0 6,0 35 19 SW 10
16.02.2019 12:00:00 10,0 7,0 28 15 SW 10
16.02.2019 11:00:00 10,0 8,0 15 8 WSW 10
16.02.2019 10:00:00 9,0 7,0 8 4 SW 10
16.02.2019 09:00:00 7,0 7,0 0 0 N 10
16.02.2019 08:00:00 6,0 5,0 2 1 - 10
16.02.2019 07:00:00 5,0 4,0 5 3 NE 10
16.02.2019 06:00:00 6,0 6,0 2 1 - 10
16.02.2019 05:00:00 6,0 5,0 9 5 SW 10
16.02.2019 04:00:00 6,0 5,0 11 6 SW 10
16.02.2019 03:00:00 7,0 6,0 4 2 - 10
16.02.2019 02:00:00 8,0 6,0 15 8 SSW 10
16.02.2019 01:00:00 9,0 8,0 15 8 SW 10
16.02.2019 00:00:00 8,0 8,0 8 4 SSW 5
15.02.2019 23:00:00 9,0 8,0 16 9 SSW 7
15.02.2019 22:00:00 10,0 7,0 18 10 S 10
15.02.2019 21:00:00 10,0 6,0 18 10 S 10
15.02.2019 20:00:00 9,0 5,0 11 6 WSW 10
15.02.2019 19:00:00 9,0 5,0 15 8 SSW 10
15.02.2019 18:00:00 11,0 5,0 21 11 SSW 10
15.02.2019 17:00:00 11,0 5,0 28 15 SSW 10
15.02.2019 16:00:00 12,0 5,0 26 14 SW 10
15.02.2019 15:00:00 12,0 5,0 28 15 SW 10
15.02.2019 14:00:00 13,0 5,0 29 16 SW 10
15.02.2019 13:00:00 13,0 4,0 35 19 SW 10
15.02.2019 12:00:00 13,0 2,0 22 12 WSW 10
15.02.2019 11:00:00 10,0 -1,0 34 18 SSW 10
15.02.2019 10:00:00 7,0 -2,0 9 5 WSW 10
15.02.2019 09:00:00 6,0 -1,0 15 8 WSW 10
15.02.2019 08:00:00 6,0 1,0 21 11 W 10
15.02.2019 07:00:00 5,0 1,0 13 7 W 10
15.02.2019 06:00:00 6,0 1,0 15 8 W 10
15.02.2019 05:00:00 6,0 0,0 18 10 SW 10
15.02.2019 04:00:00 7,0 1,0 18 10 SSW 10
15.02.2019 03:00:00 6,0 2,0 11 6 SSW 10
15.02.2019 02:00:00 6,0 2,0 11 6 SW 10
15.02.2019 01:00:00 7,0 2,0 11 6 WSW 10
15.02.2019 00:00:00 7,0 3,0 11 6 W 10
14.02.2019 23:00:00 7,0 4,0 18 10 SW 10
14.02.2019 22:00:00 7,0 4,0 18 10 SW 10
14.02.2019 21:00:00 9,0 4,0 21 11 SW 10
14.02.2019 20:00:00 8,0 4,0 16 9 SSW 10
14.02.2019 19:00:00 9,0 5,0 18 10 SW 10
14.02.2019 18:00:00 9,0 5,0 18 10 WSW 10
14.02.2019 17:00:00 10,0 6,0 21 11 WSW 10
14.02.2019 16:00:00 12,0 8,0 22 12 SW 10
14.02.2019 15:00:00 12,0 8,0 24 13 SW 10
14.02.2019 14:00:00 12,0 8,0 16 9 SSW 10
14.02.2019 13:00:00 11,0 8,0 24 13 SW 10
14.02.2019 12:00:00 11,0 8,0 22 12 SW 10
14.02.2019 11:00:00 10,0 7,0 13 7 W 10
14.02.2019 10:00:00 11,0 7,0 18 10 S 10
14.02.2019 09:00:00 11,0 7,0 18 10 SSW 10
14.02.2019 08:00:00 11,0 7,0 22 12 SSW 10
14.02.2019 07:00:00 11,0 7,0 28 15 SSW 10
14.02.2019 06:00:00 11,0 7,0 26 14 SSW 10
14.02.2019 05:00:00 11,0 7,0 29 16 SSW 10
14.02.2019 04:00:00 11,0 7,0 26 14 SSW 10
14.02.2019 03:00:00 11,0 7,0 29 16 SSW 10
14.02.2019 02:00:00 11,0 7,0 28 15 S 10
14.02.2019 01:00:00 11,0 7,0 26 14 S 10
14.02.2019 00:00:00 11,0 6,0 28 15 S 10
13.02.2019 23:00:00 11,0 5,0 24 13 SSW 10
13.02.2019 22:00:00 11,0 6,0 29 16 SSW 10
13.02.2019 21:00:00 11,0 6,0 37 20 SSW 10
13.02.2019 20:00:00 11,0 6,0 26 14 SSW 10
13.02.2019 19:00:00 11,0 6,0 26 14 S 10
13.02.2019 18:00:00 11,0 6,0 24 13 S 10
13.02.2019 17:00:00 11,0 7,0 22 12 SSW 10
13.02.2019 16:00:00 12,0 7,0 26 14 S 10
13.02.2019 15:00:00 12,0 7,0 26 14 SSW 10
13.02.2019 14:00:00 13,0 8,0 37 20 SSW 10
13.02.2019 13:00:00 12,0 7,0 35 19 SSW 10

tt = temperature
td = dewpoint
ff = wind speed
dd = wind direction
vv = visibility

Next stations